Time;durP1;ratioP1;P1;durP2;ratioP2;P2;SDS_P1;SDS_P2;PMS_P1;PMS_P2;Temp;Humidity;BMP_temperature;BMP_pressure;BME280_temperature;BME280_humidity;BME280_pressure;Samples;Min_cycle;Max_cycle;Signal;HPM_P1;HPM_P2
2023/04/23 00:00:47;;;;;;;0.30;0.30;;;;;;;12.67;40.00;99545.69;5024502;28;20029;-64
2023/04/23 00:03:13;;;;;;;0.30;0.30;;;;;;;12.39;40.46;99542.19;5024677;28;20026;-65
2023/04/23 00:05:41;;;;;;;0.30;0.30;;;;;;;12.58;39.83;99526.84;5024591;28;20021;-65
2023/04/23 00:08:09;;;;;;;0.30;0.30;;;;;;;12.63;39.80;99521.50;5022883;28;20030;-64
2023/04/23 00:10:34;;;;;;;0.32;0.32;;;;;;;12.63;39.89;99522.38;5024649;28;20045;-65
2023/04/23 00:13:00;;;;;;;0.30;0.30;;;;;;;12.51;40.06;99517.50;5024518;28;20029;-64
2023/04/23 00:15:26;;;;;;;0.40;0.40;;;;;;;12.68;39.89;99506.59;5023184;28;20026;-64
2023/04/23 00:17:53;;;;;;;0.40;0.40;;;;;;;12.37;40.49;99494.50;5022848;28;20065;-64
2023/04/23 00:20:18;;;;;;;0.40;0.40;;;;;;;12.57;40.14;99493.88;5024420;28;20080;-66
2023/04/23 00:22:44;;;;;;;0.50;0.50;;;;;;;12.47;40.10;99475.13;5024637;28;20033;-66
2023/04/23 00:25:10;;;;;;;0.55;0.55;;;;;;;12.70;39.49;99481.34;5023008;28;20037;-65
2023/04/23 00:27:36;;;;;;;0.30;0.30;;;;;;;12.43;40.00;99477.88;5024152;28;20105;-63
2023/04/23 00:30:03;;;;;;;0.30;0.30;;;;;;;12.33;40.25;99478.13;5024047;28;20026;-65
2023/04/23 00:32:29;;;;;;;0.30;0.30;;;;;;;12.57;39.81;99462.63;5024210;28;20044;-64
2023/04/23 00:34:55;;;;;;;0.30;0.30;;;;;;;12.47;39.95;99466.44;5025583;28;20034;-64
2023/04/23 00:37:21;;;;;;;0.30;0.30;;;;;;;12.28;40.22;99454.03;5026707;28;20532;-64
2023/04/23 00:39:46;;;;;;;0.30;0.30;;;;;;;12.30;39.92;99453.97;5028135;28;20026;-64
2023/04/23 00:42:12;;;;;;;0.40;0.40;;;;;;;12.51;39.63;99439.41;5028300;28;20041;-64
2023/04/23 00:44:38;;;;;;;0.40;0.40;;;;;;;12.23;40.08;99451.56;5027872;28;20026;-63
2023/04/23 00:47:06;;;;;;;0.30;0.30;;;;;;;12.53;39.44;99445.44;5027486;28;20158;-64
2023/04/23 00:49:32;;;;;;;0.30;0.30;;;;;;;12.50;39.44;99437.72;5028038;28;20072;-64
2023/04/23 00:51:59;;;;;;;0.30;0.30;;;;;;;12.22;40.00;99443.81;5027497;28;20032;-66
2023/04/23 00:54:25;;;;;;;0.30;0.30;;;;;;;12.30;39.89;99435.75;5027826;28;20057;-66
2023/04/23 00:56:51;;;;;;;0.30;0.30;;;;;;;12.19;40.26;99442.13;5027688;28;20033;-63
2023/04/23 00:59:17;;;;;;;0.30;0.30;;;;;;;12.35;40.03;99452.06;5027259;28;20022;-64
2023/04/23 01:01:44;;;;;;;0.30;0.30;;;;;;;12.36;39.78;99440.75;5027523;28;20026;-64
2023/04/23 01:04:12;;;;;;;0.35;0.35;;;;;;;12.59;39.07;99462.59;5027690;28;20397;-63
2023/04/23 01:06:37;;;;;;;0.30;0.30;;;;;;;12.33;39.63;99462.50;5026229;28;20022;-65
2023/04/23 01:09:05;;;;;;;0.30;0.30;;;;;;;12.64;38.97;99471.13;5027301;28;20386;-64
2023/04/23 01:11:31;;;;;;;19.20;4.25;;;;;;;12.42;39.45;99470.94;5026626;28;20324;-65
2023/04/23 01:13:58;;;;;;;0.30;0.30;;;;;;;12.40;39.61;99484.00;5026948;28;20026;-63
2023/04/23 01:16:23;;;;;;;0.38;0.38;;;;;;;12.26;40.05;99476.63;5025763;28;20084;-64
2023/04/23 01:18:48;;;;;;;0.30;0.30;;;;;;;12.36;40.38;99478.03;5026825;28;20386;-63
2023/04/23 01:21:17;;;;;;;0.77;0.77;;;;;;;12.20;41.21;99474.22;5027108;28;20109;-61
2023/04/23 01:23:42;;;;;;;0.30;0.30;;;;;;;12.00;42.27;99471.28;5026974;28;20057;-62
2023/04/23 01:26:09;;;;;;;0.30;0.30;;;;;;;11.74;43.36;99466.84;5027334;28;20086;-63
2023/04/23 01:28:35;;;;;;;0.40;0.40;;;;;;;11.51;44.40;99461.38;5026840;28;20080;-64
2023/04/23 01:31:01;;;;;;;0.30;0.30;;;;;;;11.57;44.96;99451.69;5026837;28;20025;-63
2023/04/23 01:33:26;;;;;;;0.30;0.30;;;;;;;11.27;45.48;99437.78;5026962;28;20094;-64
2023/04/23 01:35:54;;;;;;;0.30;0.30;;;;;;;11.37;45.48;99440.13;5026736;28;20029;-63
2023/04/23 01:38:22;;;;;;;0.30;0.30;;;;;;;11.23;45.50;99422.31;5026699;28;20025;-63
2023/04/23 01:40:47;;;;;;;0.40;0.40;;;;;;;11.40;45.51;99438.28;5026905;28;20029;-63
2023/04/23 01:43:13;;;;;;;0.30;0.30;;;;;;;11.39;45.68;99430.50;5026893;28;20029;-65
2023/04/23 01:45:39;;;;;;;0.35;0.35;;;;;;;11.38;45.80;99421.88;5026707;28;20428;-64
2023/04/23 01:48:05;;;;;;;0.60;0.60;;;;;;;11.61;45.60;99425.56;5023997;28;20046;-64
2023/04/23 01:50:30;;;;;;;0.30;0.30;;;;;;;11.36;46.21;99428.88;5026559;28;20025;-64
2023/04/23 01:52:56;;;;;;;0.30;0.30;;;;;;;11.49;45.88;99437.19;5026549;28;20081;-63
2023/04/23 01:55:22;;;;;;;0.30;0.30;;;;;;;11.27;46.55;99426.53;5026482;28;20025;-64
2023/04/23 01:57:48;;;;;;;0.40;0.40;;;;;;;11.36;46.13;99413.28;5026424;28;20166;-63
2023/04/23 02:00:14;;;;;;;2.10;2.00;;;;;;;11.31;46.89;99430.72;5026367;28;20053;-62
2023/04/23 02:02:41;;;;;;;0.50;0.50;;;;;;;11.12;47.06;99423.44;5026661;28;20026;-64
2023/04/23 02:05:11;;;;;;;0.30;0.30;;;;;;;11.11;47.21;99424.34;5026276;28;20018;-63
2023/04/23 02:07:37;;;;;;;0.30;0.30;;;;;;;11.11;47.21;99413.94;5026056;28;20093;-64
2023/04/23 02:10:03;;;;;;;0.30;0.30;;;;;;;11.15;47.26;99415.56;5026128;28;20032;-63
2023/04/23 02:12:29;;;;;;;0.30;0.30;;;;;;;11.27;47.29;99413.53;5026003;28;20032;-64
2023/04/23 02:14:54;;;;;;;0.40;0.40;;;;;;;11.14;47.48;99406.06;5026305;28;20061;-63
2023/04/23 02:17:21;;;;;;;0.30;0.30;;;;;;;11.07;47.61;99414.91;5026043;28;20018;-64
2023/04/23 02:19:48;;;;;;;0.65;0.65;;;;;;;11.02;47.96;99401.22;5025956;28;20050;-63
2023/04/23 02:22:14;;;;;;;0.30;0.30;;;;;;;11.15;47.75;99409.50;5025963;28;20026;-65
2023/04/23 02:24:40;;;;;;;0.40;0.40;;;;;;;11.01;47.82;99415.06;5025909;28;20022;-63
2023/04/23 02:27:06;;;;;;;0.30;0.30;;;;;;;10.99;48.10;99398.69;5025998;28;20037;-64
2023/04/23 02:29:32;;;;;;;0.30;0.30;;;;;;;11.00;48.39;99390.88;5025851;28;20026;-64
2023/04/23 02:31:57;;;;;;;0.40;0.40;;;;;;;11.14;47.94;99381.84;5025483;28;20253;-62
2023/04/23 02:34:23;;;;;;;0.30;0.30;;;;;;;10.95;48.31;99381.47;5025809;28;20433;-64
2023/04/23 02:36:48;;;;;;;0.30;0.30;;;;;;;10.87;48.14;99379.09;5024815;28;20026;-63
2023/04/23 02:39:14;;;;;;;0.30;0.30;;;;;;;10.90;48.42;99373.81;5023558;28;20026;-65
2023/04/23 02:41:40;;;;;;;0.30;0.30;;;;;;;11.15;48.07;99373.13;5025440;28;20025;-64
2023/04/23 02:44:05;;;;;;;5.15;3.15;;;;;;;11.21;47.90;99375.59;5025413;28;20034;-64
2023/04/23 02:46:31;;;;;;;0.30;0.30;;;;;;;11.02;48.24;99367.44;5025505;28;20040;-64
2023/04/23 02:48:56;;;;;;;0.40;0.40;;;;;;;11.06;48.24;99363.88;5024620;28;20466;-64
2023/04/23 02:51:22;;;;;;;0.30;0.30;;;;;;;10.90;48.58;99353.91;5025075;28;20104;-64
2023/04/23 02:53:48;;;;;;;0.30;0.30;;;;;;;10.90;48.62;99355.63;5025370;28;20044;-63
2023/04/23 02:56:13;;;;;;;0.30;0.30;;;;;;;10.86;48.93;99351.44;5025525;28;20022;-64
2023/04/23 02:58:38;;;;;;;0.50;0.50;;;;;;;10.85;48.71;99340.19;5024973;28;20022;-63
2023/04/23 03:01:04;;;;;;;0.30;0.30;;;;;;;10.99;48.56;99345.00;5024933;28;20069;-64
2023/04/23 03:03:31;;;;;;;0.30;0.30;;;;;;;10.99;48.55;99332.00;5025009;28;20018;-63
2023/04/23 03:05:57;;;;;;;0.30;0.30;;;;;;;10.80;49.06;99339.44;5023694;28;20366;-63
2023/04/23 03:08:23;;;;;;;0.30;0.30;;;;;;;10.76;49.13;99322.25;5025128;28;20472;-62
2023/04/23 03:10:48;;;;;;;0.40;0.40;;;;;;;10.70;49.54;99331.06;5025381;28;20089;-63
2023/04/23 03:13:14;;;;;;;0.30;0.30;;;;;;;10.76;49.70;99325.72;5024836;28;20037;-63
2023/04/23 03:15:40;;;;;;;0.30;0.30;;;;;;;10.85;49.18;99322.00;5025155;28;20026;-64
2023/04/23 03:18:07;;;;;;;1.60;1.52;;;;;;;10.71;49.69;99311.13;5024602;28;20041;-63
2023/04/23 03:20:33;;;;;;;0.30;0.30;;;;;;;10.79;49.74;99309.19;5024805;28;20484;-64
2023/04/23 03:22:58;;;;;;;2.88;0.93;;;;;;;10.85;49.34;99302.97;5024618;28;20030;-63
2023/04/23 03:25:24;;;;;;;0.50;0.45;;;;;;;10.79;49.51;99306.59;5024762;28;20040;-63
2023/04/23 03:27:50;;;;;;;0.30;0.30;;;;;;;10.90;49.47;99299.38;5024566;28;20022;-63
2023/04/23 03:30:16;;;;;;;0.73;0.73;;;;;;;10.64;49.87;99290.53;5024923;28;20022;-64
2023/04/23 03:32:41;;;;;;;0.40;0.40;;;;;;;10.61;49.89;99279.38;5024587;28;20022;-63
2023/04/23 03:35:08;;;;;;;0.30;0.30;;;;;;;10.75;49.49;99286.81;5024884;28;20021;-63
2023/04/23 03:37:34;;;;;;;0.40;0.40;;;;;;;10.75;49.74;99281.63;5024617;28;20056;-63
2023/04/23 03:40:02;;;;;;;0.52;0.52;;;;;;;10.65;49.74;99276.66;5024436;28;20022;-63
2023/04/23 03:42:27;;;;;;;1.10;1.10;;;;;;;10.96;49.12;99289.72;5023110;28;20026;-64
2023/04/23 03:44:53;;;;;;;0.35;0.35;;;;;;;10.99;49.19;99269.69;5023407;28;20040;-63
2023/04/23 03:47:18;;;;;;;0.40;0.40;;;;;;;10.94;49.12;99270.72;5023814;28;20042;-64
2023/04/23 03:49:44;;;;;;;0.30;0.30;;;;;;;10.97;49.16;99276.69;5023998;28;20014;-63
2023/04/23 03:52:09;;;;;;;0.30;0.30;;;;;;;11.09;49.10;99275.47;5024345;28;20044;-63
2023/04/23 03:54:34;;;;;;;0.32;0.32;;;;;;;10.91;49.57;99266.44;5022679;28;20030;-63
2023/04/23 03:57:00;;;;;;;0.73;0.73;;;;;;;10.90;49.71;99251.75;5024682;28;20044;-64
2023/04/23 03:59:26;;;;;;;0.40;0.40;;;;;;;10.91;49.68;99259.50;5023945;28;20022;-64
2023/04/23 04:01:51;;;;;;;0.30;0.30;;;;;;;10.97;49.71;99245.53;5024290;28;20030;-63
2023/04/23 04:04:16;;;;;;;0.40;0.40;;;;;;;10.89;50.85;99252.66;5024392;28;20026;-61
2023/04/23 04:06:42;;;;;;;0.40;0.40;;;;;;;10.51;52.33;99252.84;5024329;28;20022;-61
2023/04/23 04:09:07;;;;;;;2.85;1.58;;;;;;;10.29;53.11;99253.34;5024194;28;20018;-62
2023/04/23 04:11:33;;;;;;;0.40;0.40;;;;;;;10.40;53.15;99268.63;5027199;28;20406;-62
2023/04/23 04:13:59;;;;;;;0.50;0.50;;;;;;;10.47;52.67;99258.97;5028416;28;20033;-62
2023/04/23 04:16:24;;;;;;;0.40;0.40;;;;;;;10.53;52.54;99241.50;5027090;28;20555;-62
2023/04/23 04:18:50;;;;;;;0.40;0.40;;;;;;;10.50;52.69;99246.78;5028414;28;20026;-62
2023/04/23 04:21:17;;;;;;;0.40;0.40;;;;;;;10.46;52.80;99244.28;5028499;28;20030;-64
2023/04/23 04:23:44;;;;;;;0.60;0.60;;;;;;;10.42;53.18;99243.50;5028321;28;20022;-63
2023/04/23 04:26:09;;;;;;;0.30;0.30;;;;;;;10.53;52.18;99244.13;5027744;28;20109;-63
2023/04/23 04:28:36;;;;;;;0.50;0.50;;;;;;;10.56;52.08;99245.75;5028039;28;20021;-64
2023/04/23 04:31:04;;;;;;;0.38;0.38;;;;;;;10.63;51.99;99252.50;5027622;28;20026;-64
2023/04/23 04:33:29;;;;;;;0.30;0.30;;;;;;;10.60;51.84;99249.13;5028182;28;20028;-63
2023/04/23 04:35:56;;;;;;;0.30;0.30;;;;;;;10.60;51.82;99255.19;5028100;28;20026;-65
2023/04/23 04:38:21;;;;;;;0.38;0.38;;;;;;;10.58;52.00;99243.97;5027952;28;20026;-64
2023/04/23 04:40:47;;;;;;;0.30;0.30;;;;;;;10.66;51.91;99241.19;5028194;28;20025;-64
2023/04/23 04:43:14;;;;;;;0.40;0.40;;;;;;;10.62;51.99;99243.00;5027779;28;20048;-64
2023/04/23 04:45:39;;;;;;;0.30;0.30;;;;;;;10.70;52.10;99248.00;5028427;28;20032;-63
2023/04/23 04:48:05;;;;;;;0.60;0.60;;;;;;;10.72;52.41;99240.19;5027463;28;20049;-64
2023/04/23 04:50:30;;;;;;;0.30;0.30;;;;;;;10.64;52.66;99246.41;5027741;28;20022;-63
2023/04/23 04:52:55;;;;;;;0.30;0.30;;;;;;;10.48;53.37;99237.34;5027563;28;20022;-63
2023/04/23 04:55:21;;;;;;;0.30;0.30;;;;;;;10.44;53.58;99235.69;5027969;28;20027;-63
2023/04/23 04:57:46;;;;;;;1.38;1.38;;;;;;;10.48;53.56;99242.53;5026296;28;20108;-63
2023/04/23 05:00:28;;;;;;;0.55;0.55;;;;;;;10.36;54.54;99234.16;5027353;28;20033;-62
2023/04/23 05:02:54;;;;;;;0.85;0.85;;;;;;;10.43;55.29;99234.00;5025962;28;20029;-63
2023/04/23 05:05:21;;;;;;;0.40;0.40;;;;;;;10.14;55.91;99239.88;5027586;28;20117;-64
2023/04/23 05:07:47;;;;;;;0.30;0.30;;;;;;;10.09;56.28;99244.34;5027632;28;20032;-63
2023/04/23 05:10:13;;;;;;;0.82;0.82;;;;;;;10.05;56.60;99237.53;5026339;28;20085;-63
2023/04/23 05:12:42;;;;;;;0.40;0.40;;;;;;;10.13;56.71;99240.78;5027418;28;20022;-64
2023/04/23 05:15:09;;;;;;;0.40;0.40;;;;;;;10.09;57.08;99235.72;5027039;28;20034;-63
2023/04/23 05:17:36;;;;;;;0.30;0.30;;;;;;;10.07;57.51;99243.53;5026863;28;20473;-65
2023/04/23 05:20:01;;;;;;;0.40;0.40;;;;;;;10.08;57.29;99250.41;5027257;28;20018;-63
2023/04/23 05:22:27;;;;;;;0.40;0.40;;;;;;;10.16;57.24;99245.03;5025847;28;20029;-63
2023/04/23 05:24:52;;;;;;;0.40;0.40;;;;;;;10.20;57.21;99244.09;5027373;28;20045;-63
2023/04/23 05:27:18;;;;;;;0.40;0.40;;;;;;;10.16;57.56;99247.63;5027182;28;20037;-64
2023/04/23 05:29:44;;;;;;;0.47;0.47;;;;;;;10.09;57.92;99240.91;5027161;28;20086;-64
2023/04/23 05:32:09;;;;;;;4.32;2.15;;;;;;;10.06;58.10;99256.53;5027169;28;20025;-64
2023/04/23 05:34:35;;;;;;;0.40;0.40;;;;;;;10.06;58.16;99261.72;5027195;28;20504;-63
2023/04/23 05:37:01;;;;;;;0.40;0.40;;;;;;;10.02;58.79;99250.56;5027273;28;20152;-64
2023/04/23 05:39:26;;;;;;;0.50;0.50;;;;;;;10.01;59.75;99248.88;5027168;28;20033;-62
2023/04/23 05:41:52;;;;;;;0.30;0.30;;;;;;;9.99;61.08;99255.84;5026989;28;20025;-62
2023/04/23 05:44:17;;;;;;;0.50;0.50;;;;;;;9.85;61.54;99244.06;5026994;28;20026;-63
2023/04/23 05:46:43;;;;;;;0.38;0.38;;;;;;;9.87;63.02;99244.03;5026707;28;20029;-62
2023/04/23 05:49:08;;;;;;;0.60;0.60;;;;;;;9.64;63.39;99232.47;5026790;28;20509;-61
2023/04/23 05:51:34;;;;;;;0.30;0.30;;;;;;;9.63;64.08;99243.72;5026753;28;20609;-62
2023/04/23 05:53:59;;;;;;;0.40;0.40;;;;;;;9.51;64.59;99248.31;5026379;28;20026;-61
2023/04/23 05:56:25;;;;;;;0.30;0.30;;;;;;;9.48;65.25;99250.97;5026774;28;20095;-60
2023/04/23 05:58:50;;;;;;;0.30;0.30;;;;;;;9.45;66.07;99250.19;5025471;28;20514;-62
2023/04/23 06:01:16;;;;;;;0.88;0.88;;;;;;;9.41;66.46;99250.25;5026640;28;20026;-61
2023/04/23 06:03:44;;;;;;;0.40;0.40;;;;;;;9.48;67.34;99244.91;5026705;28;20022;-60
2023/04/23 06:06:11;;;;;;;0.40;0.40;;;;;;;9.38;68.27;99236.50;5041480;28;20049;-61
2023/04/23 06:08:36;;;;;;;0.40;0.40;;;;;;;9.29;68.80;99250.53;5024764;28;20025;-61
2023/04/23 06:11:02;;;;;;;0.40;0.40;;;;;;;9.26;68.69;99248.00;5026405;28;20026;-62
2023/04/23 06:13:29;;;;;;;0.43;0.43;;;;;;;9.27;69.33;99237.59;5026125;28;20240;-61
2023/04/23 06:15:55;;;;;;;0.40;0.40;;;;;;;9.27;69.84;99241.94;5026404;28;20093;-61
2023/04/23 06:18:20;;;;;;;0.35;0.35;;;;;;;9.28;70.25;99241.06;5026186;28;20026;-62
2023/04/23 06:20:47;;;;;;;0.40;0.40;;;;;;;9.21;70.43;99231.69;5026302;28;20021;-61
2023/04/23 06:23:12;;;;;;;0.40;0.40;;;;;;;9.24;70.66;99248.03;5026477;28;20026;-60
2023/04/23 06:25:38;;;;;;;2.55;2.38;;;;;;;9.30;71.21;99245.31;5025853;28;20044;-60
2023/04/23 06:28:03;;;;;;;0.40;0.40;;;;;;;9.34;72.19;99235.75;5026115;28;20052;-61
2023/04/23 06:30:29;;;;;;;1.02;1.02;;;;;;;9.16;72.76;99250.78;5025922;28;20024;-61
2023/04/23 06:32:54;;;;;;;0.38;0.38;;;;;;;9.08;73.13;99236.28;5025280;28;20029;-61
2023/04/23 06:35:20;;;;;;;0.40;0.40;;;;;;;9.07;73.11;99234.59;5025622;28;20374;-61
2023/04/23 06:37:45;;;;;;;0.40;0.40;;;;;;;9.11;73.65;99233.63;5024496;28;20465;-68
2023/04/23 06:40:11;;;;;;;0.50;0.50;;;;;;;9.01;74.21;99236.41;5025496;28;20144;-61
2023/04/23 06:42:36;;;;;;;0.40;0.40;;;;;;;9.01;74.64;99235.59;5025798;28;20026;-62
2023/04/23 06:45:05;;;;;;;0.40;0.40;;;;;;;9.01;75.02;99233.00;5025704;28;20436;-62
2023/04/23 06:47:30;;;;;;;0.32;0.32;;;;;;;8.93;75.36;99231.41;5040404;28;20045;-61
2023/04/23 06:49:58;;;;;;;0.30;0.30;;;;;;;8.95;75.74;99226.19;5025793;28;20022;-63
2023/04/23 06:52:24;;;;;;;0.32;0.32;;;;;;;8.93;76.33;99213.28;5025570;28;20029;-61
2023/04/23 06:54:50;;;;;;;0.40;0.40;;;;;;;8.91;76.96;99222.81;5024610;28;20022;-61
2023/04/23 06:57:15;;;;;;;0.40;0.40;;;;;;;8.89;76.99;99219.41;5025420;28;20029;-61
2023/04/23 06:59:40;;;;;;;0.50;0.50;;;;;;;8.93;77.65;99221.03;5024938;28;20057;-61
2023/04/23 07:02:08;;;;;;;0.40;0.40;;;;;;;8.97;78.26;99220.97;5025541;28;20504;-62
2023/04/23 07:04:34;;;;;;;1.05;1.05;;;;;;;8.88;78.95;99228.03;5024150;28;20061;-61
2023/04/23 07:06:59;;;;;;;0.30;0.30;;;;;;;8.91;79.20;99247.84;5025423;28;20029;-62
2023/04/23 07:09:26;;;;;;;0.30;0.30;;;;;;;8.88;79.35;99248.75;5025028;28;20033;-63
2023/04/23 07:11:51;;;;;;;0.38;0.38;;;;;;;8.94;79.50;99250.38;5025409;28;20068;-63
2023/04/23 07:14:17;;;;;;;0.40;0.40;;;;;;;8.97;79.49;99241.69;5025060;28;20022;-63
2023/04/23 07:16:42;;;;;;;0.30;0.30;;;;;;;9.02;80.21;99252.81;5025363;28;20033;-63
2023/04/23 07:19:08;;;;;;;1.48;1.38;;;;;;;8.99;80.48;99245.97;5023378;28;20053;-63
2023/04/23 07:21:33;;;;;;;2.55;2.35;;;;;;;9.02;80.63;99245.03;5024987;28;20480;-62
2023/04/23 07:23:59;;;;;;;0.32;0.32;;;;;;;9.10;80.84;99240.56;5039948;28;20049;-63
2023/04/23 07:26:26;;;;;;;4.53;4.10;;;;;;;9.14;81.50;99237.00;5024869;28;20029;-61
2023/04/23 07:28:52;;;;;;;0.88;0.88;;;;;;;9.14;81.94;99236.16;5040223;28;20091;-61
2023/04/23 07:31:19;;;;;;;0.40;0.40;;;;;;;9.12;82.18;99232.75;5024779;28;20026;-61
2023/04/23 07:33:44;;;;;;;0.40;0.40;;;;;;;9.18;82.44;99236.06;5023760;28;20029;-61
2023/04/23 07:36:12;;;;;;;0.38;0.38;;;;;;;9.22;82.16;99215.31;5040104;28;20103;-62
2023/04/23 07:38:37;;;;;;;0.60;0.60;;;;;;;9.39;82.25;99220.91;5024614;28;20022;-62
2023/04/23 07:41:03;;;;;;;0.40;0.40;;;;;;;9.46;82.89;99232.00;5024915;28;20421;-62
2023/04/23 07:43:29;;;;;;;3.30;2.15;;;;;;;9.45;82.91;99234.63;5024698;28;20033;-62
2023/04/23 07:45:54;;;;;;;0.30;0.30;;;;;;;9.48;83.00;99243.19;5022968;28;20026;-62
2023/04/23 07:48:19;;;;;;;0.40;0.40;;;;;;;9.56;82.90;99243.00;5022585;28;20042;-62
2023/04/23 07:50:45;;;;;;;0.55;0.55;;;;;;;9.62;82.97;99242.88;5024690;28;20029;-62
2023/04/23 07:53:10;;;;;;;0.30;0.30;;;;;;;9.68;83.07;99241.88;5024371;28;20026;-62
2023/04/23 07:55:36;;;;;;;0.47;0.47;;;;;;;9.66;83.16;99236.72;5024547;28;20025;-62
2023/04/23 07:58:01;;;;;;;0.30;0.30;;;;;;;9.69;83.64;99246.19;5024729;28;20026;-61
2023/04/23 08:00:27;;;;;;;0.30;0.30;;;;;;;9.79;83.45;99252.00;5024364;28;20056;-63
2023/04/23 08:02:52;;;;;;;0.68;0.68;;;;;;;9.84;83.52;99246.72;5024656;28;20021;-63
2023/04/23 08:05:18;;;;;;;0.30;0.30;;;;;;;9.89;83.42;99240.50;5023340;28;20026;-63
2023/04/23 08:07:43;;;;;;;0.40;0.40;;;;;;;9.90;83.77;99237.00;5024565;28;20033;-61
2023/04/23 08:10:09;;;;;;;0.40;0.40;;;;;;;9.89;84.10;99237.06;5023367;28;20025;-61
2023/04/23 08:12:35;;;;;;;0.38;0.38;;;;;;;9.91;84.57;99246.50;5039557;28;20072;-61
2023/04/23 08:15:01;;;;;;;0.73;0.73;;;;;;;9.97;84.71;99244.66;5023065;28;20021;-62
2023/04/23 08:17:26;;;;;;;1.15;1.05;;;;;;;9.97;85.30;99232.53;5024233;28;20109;-70
2023/04/23 08:19:52;;;;;;;0.40;0.40;;;;;;;10.14;85.71;99239.88;5024199;28;20014;-72
2023/04/23 08:22:17;;;;;;;0.82;0.82;;;;;;;10.26;86.40;99240.47;5024419;28;20065;-66
2023/04/23 08:24:45;;;;;;;1.13;1.13;;;;;;;10.28;86.64;99255.13;5024528;28;20315;-65
2023/04/23 08:27:10;;;;;;;0.88;0.88;;;;;;;10.36;86.59;99249.72;5024348;28;20082;-66
2023/04/23 08:29:36;;;;;;;1.95;1.85;;;;;;;10.44;87.05;99244.34;5022984;28;20033;-64
2023/04/23 08:32:01;;;;;;;0.32;0.32;;;;;;;10.48;87.38;99245.13;5023495;28;20511;-65
2023/04/23 08:34:27;;;;;;;0.50;0.50;;;;;;;10.48;87.50;99245.97;5024115;28;20033;-65
2023/04/23 08:36:53;;;;;;;0.40;0.40;;;;;;;10.48;87.56;99248.56;5024254;28;20114;-64
2023/04/23 08:39:18;;;;;;;0.98;0.93;;;;;;;10.48;87.29;99245.13;5023649;28;20053;-66
2023/04/23 08:41:48;;;;;;;0.40;0.40;;;;;;;10.46;87.61;99252.06;5005432;28;20052;-65
2023/04/23 08:44:25;;;;;;;0.50;0.50;;;;;;;10.46;87.65;99254.66;5023760;28;20022;-65
2023/04/23 08:46:52;;;;;;;0.40;0.40;;;;;;;10.46;87.42;99259.84;5023820;28;20014;-66
2023/04/23 08:49:19;;;;;;;0.60;0.60;;;;;;;10.41;87.28;99263.41;5023658;28;20485;-64
2023/04/23 08:51:51;;;;;;;0.40;0.40;;;;;;;10.41;87.38;99263.41;5023995;28;20056;-65
2023/04/23 08:54:27;;;;;;;1.02;0.85;;;;;;;10.37;87.26;99263.53;5022536;28;20030;-65
2023/04/23 08:56:57;;;;;;;0.40;0.40;;;;;;;10.40;86.77;99273.81;5026219;28;20037;-65
2023/04/23 08:59:26;;;;;;;0.32;0.32;;;;;;;10.43;87.11;99270.31;5027419;28;20025;-65
2023/04/23 09:01:52;;;;;;;2.28;1.50;;;;;;;10.40;86.77;99274.69;5026926;28;20093;-65
2023/04/23 09:04:19;;;;;;;0.60;0.60;;;;;;;10.43;86.77;99266.00;5027503;28;20021;-64
2023/04/23 09:06:45;;;;;;;0.70;0.70;;;;;;;10.57;86.52;99264.78;5027712;28;20056;-64
2023/04/23 09:09:14;;;;;;;0.40;0.40;;;;;;;10.66;86.72;99265.41;5027470;28;20018;-65
2023/04/23 09:11:40;;;;;;;1.25;1.25;;;;;;;10.87;86.24;99270.88;5027474;28;20025;-66
2023/04/23 09:14:07;;;;;;;0.68;0.65;;;;;;;10.91;85.80;99272.50;5026392;28;20034;-66
2023/04/23 09:16:32;;;;;;;0.40;0.40;;;;;;;10.88;84.69;99270.00;5027016;28;20060;-67
2023/04/23 09:18:58;;;;;;;1.13;0.73;;;;;;;10.86;84.16;99281.31;5025296;28;20030;-68
2023/04/23 09:21:23;;;;;;;0.77;0.77;;;;;;;10.84;84.12;99288.28;5026856;28;20036;-68
2023/04/23 09:23:52;;;;;;;0.30;0.30;;;;;;;10.72;84.41;99272.16;5027221;28;20026;-68
2023/04/23 09:26:21;;;;;;;0.77;0.73;;;;;;;10.84;84.30;99290.88;5027274;28;20025;-67
2023/04/23 09:28:50;;;;;;;0.30;0.30;;;;;;;10.91;84.22;99292.41;5025516;28;20033;-67
2023/04/23 09:31:21;;;;;;;0.32;0.32;;;;;;;11.09;84.64;99301.44;5026110;28;20026;-67
2023/04/23 09:33:54;;;;;;;0.30;0.30;;;;;;;11.18;83.36;99299.47;5027432;28;20044;-68
2023/04/23 09:36:23;;;;;;;0.40;0.40;;;;;;;11.22;82.64;99291.56;5027192;28;20082;-69
2023/04/23 09:38:49;;;;;;;0.32;0.32;;;;;;;11.22;81.51;99298.47;5026800;28;20025;-67
2023/04/23 09:41:21;;;;;;;0.30;0.30;;;;;;;11.17;80.41;99293.41;5024701;28;20353;-66
2023/04/23 09:43:47;;;;;;;0.30;0.30;;;;;;;11.19;80.63;99301.16;5025888;28;20033;-66
2023/04/23 09:46:12;;;;;;;0.30;0.30;;;;;;;11.24;80.82;99299.31;5027235;28;20030;-66
2023/04/23 09:48:42;;;;;;;0.30;0.30;;;;;;;11.33;81.08;99303.38;5026701;28;20050;-65
2023/04/23 09:51:10;;;;;;;1.65;0.63;;;;;;;11.53;81.22;99305.41;5026066;28;20029;-66
2023/04/23 09:53:43;;;;;;;0.40;0.40;;;;;;;11.61;80.49;99303.38;5025133;28;20032;-67
2023/04/23 09:56:08;;;;;;;0.30;0.30;;;;;;;11.74;79.89;99313.44;5025425;28;20026;-64
2023/04/23 09:58:34;;;;;;;1.95;1.85;;;;;;;11.76;79.22;99306.41;5026498;28;20060;-65
2023/04/23 10:01:07;;;;;;;0.30;0.30;;;;;;;11.80;78.03;99315.84;5025625;28;20085;-65
2023/04/23 10:03:32;;;;;;;0.40;0.40;;;;;;;11.78;77.73;99309.81;5024225;28;20053;-62
2023/04/23 10:05:58;;;;;;;0.40;0.40;;;;;;;11.78;77.07;99315.03;5024888;28;20021;-64
2023/04/23 10:08:24;;;;;;;0.40;0.40;;;;;;;11.78;76.93;99310.69;5024146;28;20026;-64
2023/04/23 10:10:50;;;;;;;0.30;0.30;;;;;;;11.78;76.62;99315.03;5026495;28;20030;-64
2023/04/23 10:13:17;;;;;;;0.30;0.30;;;;;;;11.76;76.48;99311.63;5026089;28;20029;-66
2023/04/23 10:15:45;;;;;;;0.35;0.35;;;;;;;11.67;75.89;99311.91;5026016;28;20116;-65
2023/04/23 10:18:13;;;;;;;0.30;0.30;;;;;;;11.57;75.31;99307.00;5026487;28;20055;-65
2023/04/23 10:20:39;;;;;;;0.30;0.30;;;;;;;11.54;75.86;99314.88;5026197;28;20028;-65
2023/04/23 10:23:07;;;;;;;0.30;0.30;;;;;;;11.49;75.47;99307.22;5026422;28;20037;-65
2023/04/23 10:25:35;;;;;;;0.52;0.52;;;;;;;11.44;75.94;99310.88;5025970;28;20030;-66
2023/04/23 10:28:03;;;;;;;0.80;0.68;;;;;;;11.46;75.97;99309.91;5026158;28;20028;-66
2023/04/23 10:30:29;;;;;;;0.30;0.30;;;;;;;11.38;75.31;99307.53;5026120;28;20026;-67
2023/04/23 10:32:56;;;;;;;0.50;0.50;;;;;;;11.40;76.10;99313.56;5024718;28;20029;-65
2023/04/23 10:35:21;;;;;;;1.20;1.20;;;;;;;11.36;76.10;99311.94;5025914;28;20029;-65
2023/04/23 10:37:47;;;;;;;0.30;0.30;;;;;;;11.42;76.33;99304.84;5041010;28;20049;-65
2023/04/23 10:40:17;;;;;;;0.30;0.30;;;;;;;11.52;76.25;99317.53;5025557;28;20037;-65
2023/04/23 10:42:44;;;;;;;0.40;0.40;;;;;;;11.59;75.94;99317.34;5025955;28;20501;-64
2023/04/23 10:45:16;;;;;;;0.40;0.40;;;;;;;11.67;75.25;99309.31;5025810;28;20492;-65
2023/04/23 10:47:43;;;;;;;0.30;0.30;;;;;;;11.81;75.67;99314.94;5025316;28;20069;-65
2023/04/23 10:50:29;;;;;;;0.30;0.30;;;;;;;12.04;75.18;99323.78;5025367;28;20030;-64
2023/04/23 10:52:56;;;;;;;0.60;0.60;;;;;;;12.07;74.37;99310.66;5023597;28;20105;-64
2023/04/23 10:55:30;;;;;;;0.30;0.30;;;;;;;12.19;73.53;99319.84;5025429;28;20026;-64
2023/04/23 10:58:04;;;;;;;0.40;0.40;;;;;;;12.12;72.56;99313.97;5023554;28;20036;-65
2023/04/23 11:00:42;;;;;;;0.30;0.30;;;;;;;12.07;73.29;99318.47;5025071;28;20018;-65
2023/04/23 11:03:30;;;;;;;0.30;0.30;;;;;;;11.90;72.99;99317.25;5025424;28;20045;-65
2023/04/23 11:05:55;;;;;;;0.40;0.40;;;;;;;11.86;73.00;99312.19;5025705;28;20032;-64
2023/04/23 11:08:21;;;;;;;0.30;0.30;;;;;;;11.77;73.06;99313.34;5025571;28;20034;-64
2023/04/23 11:11:00;;;;;;;0.30;0.30;;;;;;;11.72;74.14;99313.47;5025509;28;20424;-64
2023/04/23 11:13:27;;;;;;;0.30;0.30;;;;;;;11.80;73.34;99323.63;5025676;28;20068;-74
2023/04/23 11:16:11;;;;;;;0.40;0.40;;;;;;;11.62;71.59;99325.03;5023775;28;20021;-73
2023/04/23 11:19:02;;;;;;;0.30;0.30;;;;;;;11.50;72.80;99321.09;5023193;28;20038;-75
2023/04/23 11:22:03;;;;;;;0.30;0.30;;;;;;;11.49;73.11;99320.22;5023078;28;20025;-73
2023/04/23 11:24:31;;;;;;;0.30;0.30;;;;;;;11.51;73.08;99317.56;5025247;28;20017;-75
2023/04/23 11:26:56;;;;;;;0.50;0.50;;;;;;;11.50;72.44;99321.09;5024136;28;20466;-72
2023/04/23 11:29:24;;;;;;;0.35;0.35;;;;;;;11.56;72.37;99320.91;5024096;28;20021;-74
2023/04/23 11:31:51;;;;;;;0.40;0.40;;;;;;;11.63;71.87;99321.53;5023624;28;20109;-74